Terminal Aerodrome Forecast
Issued by NWS

Home | Current Version | Previous Version | Text Only | Print | Product List | Glossary On
Versions: 1 2 3 4 5 6 7 8 9 10 11 12 13 14 15 16 17 18 19 20 21 22 23 24 25 26 27 28 29 30 31 32 33 34 35 36 37 38 39 40 41 42
061
FTUS44 KBMX 091634 AAA
TAFASN
TAF AMD
KASN 091634Z 0917/1012 28012G20KT 6SM -SHSN BR SCT035 OVC050
     FM100300 30007KT P6SM OVC050
     FM100900 30005KT P6SM SCT050=

USA.gov is the U.S. government's official web portal to all federal, state and local government web resources and services.